createdAt,value
2019-05-19T00:02:19.549Z,26.10
2019-05-19T00:04:47.528Z,25.67
2019-05-19T00:07:15.562Z,24.93
2019-05-19T00:09:43.592Z,25.70
2019-05-19T00:12:11.556Z,22.67
2019-05-19T00:14:39.532Z,23.43
2019-05-19T00:17:07.534Z,24.60
2019-05-19T00:19:35.527Z,23.07
2019-05-19T00:22:03.536Z,24.50
2019-05-19T00:24:31.543Z,26.23
2019-05-19T00:26:59.514Z,28.07
2019-05-19T00:29:27.542Z,24.80
2019-05-19T00:31:55.508Z,24.77
2019-05-19T00:34:23.588Z,27.60
2019-05-19T00:36:51.530Z,25.90
2019-05-19T00:39:19.551Z,26.23
2019-05-19T00:41:47.565Z,26.57
2019-05-19T00:44:15.541Z,27.87
2019-05-19T00:46:43.586Z,26.27
2019-05-19T00:49:11.612Z,26.67
2019-05-19T00:51:39.640Z,27.33
2019-05-19T00:54:07.644Z,27.43
2019-05-19T00:56:35.658Z,25.20
2019-05-19T00:59:03.886Z,28.97
2019-05-19T01:01:31.880Z,26.67
2019-05-19T01:03:59.873Z,28.27
2019-05-19T01:06:27.917Z,24.40
2019-05-19T01:08:55.936Z,25.07
2019-05-19T01:11:23.915Z,25.77
2019-05-19T01:13:51.905Z,25.27
2019-05-19T01:16:19.911Z,25.13
2019-05-19T01:18:47.910Z,25.17
2019-05-19T01:21:15.883Z,26.17
2019-05-19T01:23:43.924Z,26.50
2019-05-19T01:26:11.863Z,24.60
2019-05-19T01:28:39.858Z,25.57
2019-05-19T01:31:07.882Z,25.43
2019-05-19T01:33:35.935Z,25.43
2019-05-19T01:36:03.916Z,25.53
2019-05-19T01:38:31.921Z,22.70
2019-05-19T01:40:59.907Z,24.03
2019-05-19T01:43:27.930Z,23.43
2019-05-19T01:45:55.884Z,23.47
2019-05-19T01:48:23.909Z,20.07
2019-05-19T01:50:51.931Z,20.27
2019-05-19T01:53:19.944Z,21.97
2019-05-19T01:55:47.973Z,22.13
2019-05-19T01:58:15.975Z,22.10
2019-05-19T02:00:43.982Z,23.27
2019-05-19T02:03:11.974Z,22.23
2019-05-19T02:05:39.964Z,22.77
2019-05-19T02:08:07.973Z,21.73
2019-05-19T02:10:35.965Z,22.40
2019-05-19T02:13:05.268Z,22.13
2019-05-19T02:15:33.365Z,22.83
2019-05-19T02:18:01.319Z,29.67
2019-05-19T02:20:33.219Z,21.70
2019-05-19T02:22:59.484Z,23.07
2019-05-19T02:25:27.591Z,21.93
2019-05-19T02:27:55.597Z,22.53
2019-05-19T02:30:23.578Z,21.90
2019-05-19T02:32:51.579Z,22.07
2019-05-19T02:35:19.585Z,19.97
2019-05-19T02:37:47.575Z,22.37
2019-05-19T02:40:15.635Z,21.83
2019-05-19T02:42:43.644Z,20.80
2019-05-19T02:45:11.652Z,23.07
2019-05-19T02:47:40.283Z,22.70
2019-05-19T02:50:08.277Z,24.90
2019-05-19T02:52:36.262Z,21.47
2019-05-19T02:55:04.227Z,22.53
2019-05-19T02:57:32.459Z,21.20
2019-05-19T03:00:00.458Z,20.20
2019-05-19T03:02:28.482Z,20.43
2019-05-19T03:04:56.477Z,21.17
2019-05-19T03:07:24.474Z,21.17
2019-05-19T03:09:52.448Z,21.50
2019-05-19T03:12:20.459Z,21.03
2019-05-19T03:14:48.457Z,20.80
2019-05-19T03:17:16.445Z,22.17
2019-05-19T03:19:44.451Z,22.53
2019-05-19T03:22:12.915Z,23.27
2019-05-19T03:24:40.877Z,20.40
2019-05-19T03:27:08.875Z,21.53
2019-05-19T03:29:41.361Z,22.33
2019-05-19T03:32:40.329Z,22.13
2019-05-19T03:35:08.321Z,22.37
2019-05-19T03:37:36.336Z,22.67
2019-05-19T03:40:06.250Z,20.50
2019-05-19T03:42:34.286Z,20.73
2019-05-19T03:45:02.271Z,21.67
2019-05-19T03:47:30.280Z,20.73
2019-05-19T03:49:58.267Z,24.30
2019-05-19T03:52:26.272Z,21.87
2019-05-19T03:54:54.245Z,20.70
2019-05-19T03:57:22.227Z,21.03
2019-05-19T03:59:50.243Z,22.00
2019-05-19T04:02:18.226Z,22.17
2019-05-19T04:04:46.247Z,24.30
2019-05-19T04:07:14.368Z,22.37
2019-05-19T04:09:42.361Z,22.13
2019-05-19T04:12:10.337Z,21.87
2019-05-19T04:14:38.354Z,21.07
2019-05-19T04:17:06.342Z,19.50
2019-05-19T04:19:34.402Z,20.80
2019-05-19T04:22:02.397Z,21.03
2019-05-19T04:24:30.396Z,19.77
2019-05-19T04:26:58.418Z,20.97
2019-05-19T04:29:26.448Z,20.97
2019-05-19T04:31:54.451Z,21.93
2019-05-19T04:34:22.449Z,18.67
2019-05-19T04:36:50.429Z,18.93
2019-05-19T04:39:18.409Z,19.83
2019-05-19T04:41:46.431Z,18.03
2019-05-19T04:44:14.412Z,17.83
2019-05-19T04:46:42.423Z,18.93
2019-05-19T04:49:10.390Z,18.57
2019-05-19T04:51:38.465Z,17.97
2019-05-19T04:54:06.402Z,17.73
2019-05-19T04:56:34.471Z,17.00
2019-05-19T04:59:02.477Z,17.83
2019-05-19T05:01:30.496Z,17.23
2019-05-19T05:03:58.463Z,16.53
2019-05-19T05:06:26.484Z,16.73
2019-05-19T05:08:54.504Z,16.47
2019-05-19T05:11:22.557Z,17.03
2019-05-19T05:13:50.534Z,16.60
2019-05-19T05:16:18.531Z,18.10
2019-05-19T05:18:47.959Z,15.83
2019-05-19T05:21:16.063Z,17.53
2019-05-19T05:23:44.074Z,17.83
2019-05-19T05:26:12.105Z,17.20
2019-05-19T05:28:40.066Z,16.93
2019-05-19T05:31:08.036Z,15.67
2019-05-19T05:33:36.014Z,16.70
2019-05-19T05:36:03.992Z,16.07
2019-05-19T05:38:32.006Z,15.37
2019-05-19T05:41:00.004Z,15.70
2019-05-19T05:43:28.033Z,17.00
2019-05-19T05:45:56.012Z,16.33
2019-05-19T05:48:23.987Z,15.10
2019-05-19T05:50:51.969Z,14.87
2019-05-19T05:53:19.981Z,16.73
2019-05-19T05:55:47.946Z,15.00
2019-05-19T05:58:16.008Z,16.60
2019-05-19T06:00:44.028Z,15.93
2019-05-19T06:03:12.013Z,16.47
2019-05-19T06:05:40.004Z,15.87
2019-05-19T06:08:07.978Z,14.57
2019-05-19T06:10:36.864Z,14.20
2019-05-19T06:13:04.839Z,15.03
2019-05-19T06:15:32.840Z,15.47
2019-05-19T06:18:00.819Z,14.83
2019-05-19T06:20:28.826Z,15.20
2019-05-19T06:22:57.287Z,15.73
2019-05-19T06:25:25.609Z,14.90
2019-05-19T06:27:53.614Z,14.47
2019-05-19T06:30:21.623Z,14.50
2019-05-19T06:32:51.533Z,14.10
2019-05-19T06:35:19.625Z,14.80
2019-05-19T06:37:47.565Z,13.50
2019-05-19T06:40:15.559Z,13.37
2019-05-19T06:42:43.592Z,13.77
2019-05-19T06:45:11.588Z,13.90
2019-05-19T06:47:39.610Z,14.63
2019-05-19T06:50:07.579Z,14.03
2019-05-19T06:52:35.604Z,13.63
2019-05-19T06:55:03.604Z,14.00
2019-05-19T06:57:31.606Z,13.13
2019-05-19T06:59:59.570Z,13.67
2019-05-19T07:02:27.582Z,14.07
2019-05-19T07:04:55.537Z,14.33
2019-05-19T07:07:23.529Z,12.90
2019-05-19T07:09:58.466Z,13.87
2019-05-19T07:12:21.148Z,14.27
2019-05-19T07:14:49.934Z,13.17
2019-05-19T07:17:18.015Z,13.20
2019-05-19T07:19:47.253Z,13.57
2019-05-19T07:22:15.321Z,13.43
2019-05-19T07:24:44.672Z,13.53
2019-05-19T07:27:12.827Z,14.40
2019-05-19T07:29:42.106Z,13.10
2019-05-19T07:32:10.423Z,13.17
2019-05-19T07:34:38.966Z,12.33
2019-05-19T07:37:07.242Z,12.87
2019-05-19T07:39:35.248Z,12.75
2019-05-19T07:42:03.268Z,13.93
2019-05-19T07:44:31.325Z,12.23
2019-05-19T07:46:59.267Z,14.53
2019-05-19T07:49:27.393Z,13.28
2019-05-19T07:51:55.357Z,14.13
2019-05-19T07:54:23.344Z,14.00
2019-05-19T07:56:51.429Z,17.37
2019-05-19T07:59:19.427Z,13.43
2019-05-19T08:01:47.432Z,13.90
2019-05-19T08:04:15.433Z,12.07
2019-05-19T08:06:43.403Z,13.10
2019-05-19T08:09:11.373Z,12.53
2019-05-19T08:11:39.363Z,11.13
2019-05-19T08:14:07.348Z,13.28
2019-05-19T08:16:35.324Z,12.20
2019-05-19T08:19:03.332Z,12.17
2019-05-19T08:21:31.345Z,12.70
2019-05-19T08:24:01.048Z,10.23
2019-05-19T08:26:28.950Z,10.87
2019-05-19T08:28:56.981Z,10.47
2019-05-19T08:31:25.033Z,11.13
2019-05-19T08:33:53.044Z,10.80
2019-05-19T08:36:21.005Z,9.60
2019-05-19T08:38:49.001Z,8.97
2019-05-19T08:41:16.987Z,13.03
2019-05-19T08:43:44.967Z,9.47
2019-05-19T08:46:12.947Z,9.80
2019-05-19T08:48:40.932Z,9.37
2019-05-19T08:51:08.902Z,8.80
2019-05-19T08:53:36.942Z,9.90
2019-05-19T08:56:04.975Z,9.80
2019-05-19T08:58:32.966Z,9.95
2019-05-19T09:01:00.944Z,9.77
2019-05-19T09:03:29.057Z,8.87
2019-05-19T09:05:57.045Z,8.85
2019-05-19T09:08:25.056Z,9.27
2019-05-19T09:10:53.043Z,8.67
2019-05-19T09:13:22.059Z,8.38
2019-05-19T09:15:50.020Z,7.60
2019-05-19T09:18:18.012Z,9.33
2019-05-19T09:20:46.046Z,8.40
2019-05-19T09:23:14.031Z,8.17
2019-05-19T09:25:42.031Z,7.90
2019-05-19T09:28:10.037Z,7.92
2019-05-19T09:30:38.073Z,6.78
2019-05-19T09:33:06.079Z,7.10
2019-05-19T09:35:34.051Z,7.20
2019-05-19T09:38:02.044Z,7.37
2019-05-19T09:40:30.068Z,7.25
2019-05-19T09:42:58.033Z,7.70
2019-05-19T09:45:25.990Z,6.63
2019-05-19T09:47:53.980Z,7.00
2019-05-19T09:50:22.015Z,8.60
2019-05-19T09:52:50.040Z,7.47
2019-05-19T09:55:19.240Z,8.47
2019-05-19T09:57:47.279Z,8.50
2019-05-19T10:00:15.326Z,8.63
2019-05-19T10:02:43.376Z,7.57
2019-05-19T10:05:11.359Z,8.63
2019-05-19T10:07:39.371Z,9.07
2019-05-19T10:10:08.868Z,7.67
2019-05-19T10:12:36.957Z,8.80
2019-05-19T10:15:28.745Z,5.50
2019-05-19T10:18:01.103Z,6.23
2019-05-19T10:20:32.626Z,5.73
2019-05-19T10:23:00.739Z,6.40
2019-05-19T10:25:29.076Z,5.83
2019-05-19T10:27:57.968Z,5.97
2019-05-19T10:30:26.356Z,5.60
2019-05-19T10:32:54.354Z,6.53
2019-05-19T10:35:22.641Z,5.53
2019-05-19T10:37:51.055Z,6.43
2019-05-19T10:40:19.707Z,6.07
2019-05-19T10:42:47.841Z,6.70
2019-05-19T10:45:15.948Z,7.60
2019-05-19T10:47:43.996Z,6.73
2019-05-19T10:50:12.018Z,7.07
2019-05-19T10:52:40.339Z,6.50
2019-05-19T10:55:08.772Z,7.03
2019-05-19T10:57:36.959Z,6.43
2019-05-19T11:00:05.526Z,7.03
2019-05-19T11:02:33.776Z,7.93
2019-05-19T11:05:02.190Z,6.43
2019-05-19T11:07:30.476Z,7.53
2019-05-19T11:09:59.340Z,6.67
2019-05-19T11:12:27.696Z,7.17
2019-05-19T11:14:56.335Z,6.87
2019-05-19T11:17:24.734Z,6.90
2019-05-19T11:19:53.568Z,7.13
2019-05-19T11:22:22.257Z,9.50
2019-05-19T11:24:50.568Z,6.77
2019-05-19T11:27:18.971Z,7.57
2019-05-19T11:29:47.773Z,6.73
2019-05-19T11:32:16.318Z,6.90
2019-05-19T11:34:44.798Z,8.63
2019-05-19T11:37:13.528Z,7.13
2019-05-19T11:39:42.355Z,7.67
2019-05-19T11:42:10.876Z,5.80
2019-05-19T11:44:39.647Z,6.37
2019-05-19T11:47:08.219Z,7.10
2019-05-19T11:49:37.012Z,6.80
2019-05-19T11:52:05.258Z,7.00
2019-05-19T11:54:33.858Z,6.90
2019-05-19T11:57:02.392Z,6.30
2019-05-19T11:59:30.405Z,7.10
2019-05-19T12:01:58.545Z,6.33
2019-05-19T12:04:26.654Z,6.00
2019-05-19T12:06:54.896Z,7.03
2019-05-19T12:09:23.447Z,6.20
2019-05-19T12:11:52.122Z,6.30
2019-05-19T12:14:20.680Z,7.47
2019-05-19T12:16:49.170Z,6.50
2019-05-19T12:19:17.450Z,6.63
2019-05-19T12:21:45.942Z,5.63
2019-05-19T12:24:14.318Z,6.63
2019-05-19T12:26:42.676Z,6.30
2019-05-19T12:29:11.066Z,6.27
2019-05-19T12:31:41.150Z,5.90
2019-05-19T12:34:09.284Z,5.47
2019-05-19T12:36:37.495Z,5.80
2019-05-19T12:39:06.600Z,5.90
2019-05-19T12:41:34.628Z,5.77
2019-05-19T12:44:02.611Z,5.93
2019-05-19T12:46:30.578Z,5.40
2019-05-19T12:48:58.667Z,5.83
2019-05-19T12:51:27.210Z,5.47
2019-05-19T12:53:55.543Z,5.60
2019-05-19T12:56:38.748Z,5.60
2019-05-19T12:58:53.608Z,5.50
2019-05-19T13:01:21.685Z,6.70
2019-05-19T13:03:50.105Z,6.30
2019-05-19T13:06:18.863Z,6.77
2019-05-19T13:08:47.528Z,6.67
2019-05-19T13:11:16.950Z,7.00
2019-05-19T13:13:45.063Z,6.73
2019-05-19T13:16:13.497Z,5.90
2019-05-19T13:18:41.622Z,8.27
2019-05-19T13:21:10.035Z,6.07
2019-05-19T13:23:39.002Z,7.40
2019-05-19T13:26:07.621Z,5.87
2019-05-19T13:28:38.595Z,6.83
2019-05-19T13:31:08.869Z,7.20
2019-05-19T13:33:37.222Z,6.10
2019-05-19T13:36:06.456Z,7.30
2019-05-19T13:38:35.267Z,6.67
2019-05-19T13:41:05.453Z,6.53
2019-05-19T13:43:33.615Z,6.33
2019-05-19T13:46:01.613Z,6.77
2019-05-19T13:48:29.614Z,6.00
2019-05-19T13:50:57.627Z,7.20
2019-05-19T13:53:25.667Z,6.10
2019-05-19T13:55:53.655Z,5.90
2019-05-19T13:58:21.674Z,6.63
2019-05-19T14:00:50.142Z,6.40
2019-05-19T14:03:18.092Z,7.13
2019-05-19T14:05:46.517Z,6.83
2019-05-19T14:08:15.582Z,6.65
2019-05-19T14:10:44.722Z,6.70
2019-05-19T14:13:12.802Z,6.63
2019-05-19T14:15:41.243Z,6.07
2019-05-19T14:18:09.335Z,7.00
2019-05-19T14:20:37.389Z,7.13
2019-05-19T14:23:05.548Z,6.77
2019-05-19T14:25:33.547Z,7.60
2019-05-19T14:28:01.966Z,8.33
2019-05-19T14:30:30.064Z,6.73
2019-05-19T14:32:58.155Z,7.30
2019-05-19T14:35:26.224Z,7.00
2019-05-19T14:37:54.375Z,8.00
2019-05-19T14:40:22.405Z,7.37
2019-05-19T14:42:57.907Z,7.40
2019-05-19T14:45:26.292Z,7.27
2019-05-19T14:47:54.434Z,9.38
2019-05-19T14:50:22.454Z,7.67
2019-05-19T14:52:50.600Z,7.80
2019-05-19T14:55:18.916Z,8.03
2019-05-19T14:57:47.719Z,8.90
2019-05-19T15:00:15.764Z,7.17
2019-05-19T15:02:46.182Z,8.40
2019-05-19T15:05:14.275Z,8.33
2019-05-19T15:07:42.739Z,9.08
2019-05-19T15:10:10.997Z,9.77
2019-05-19T15:12:39.321Z,8.90
2019-05-19T15:15:07.751Z,9.08
2019-05-19T15:17:35.869Z,8.93
2019-05-19T15:20:04.471Z,9.23
2019-05-19T15:22:33.047Z,9.73
2019-05-19T15:25:01.586Z,9.98
2019-05-19T15:27:29.590Z,9.33
2019-05-19T15:30:11.908Z,9.70
2019-05-19T15:32:27.917Z,9.80
2019-05-19T15:34:56.129Z,16.32
2019-05-19T15:37:25.394Z,17.20
2019-05-19T15:39:53.829Z,8.77
2019-05-19T15:42:21.868Z,11.60
2019-05-19T15:44:49.900Z,11.70
2019-05-19T15:47:17.980Z,9.63
2019-05-19T15:49:46.159Z,17.37
2019-05-19T15:52:15.149Z,9.87
2019-05-19T15:54:43.392Z,13.10
2019-05-19T15:57:11.436Z,14.20
2019-05-19T15:59:39.478Z,11.47
2019-05-19T16:02:08.151Z,12.97
2019-05-19T16:04:36.137Z,13.97
2019-05-19T16:07:04.949Z,12.67
2019-05-19T16:09:33.241Z,13.63
2019-05-19T16:12:01.321Z,12.63
2019-05-19T16:14:29.280Z,13.33
2019-05-19T16:16:57.749Z,13.80
2019-05-19T16:19:25.865Z,13.37
2019-05-19T16:21:54.498Z,12.97
2019-05-19T16:24:23.167Z,12.87
2019-05-19T16:26:51.184Z,12.23
2019-05-19T16:29:21.115Z,11.67
2019-05-19T16:31:49.128Z,12.50
2019-05-19T16:34:17.229Z,10.50
2019-05-19T16:36:45.226Z,11.87
2019-05-19T16:39:13.605Z,11.57
2019-05-19T16:41:41.580Z,10.07
2019-05-19T16:44:09.910Z,10.53
2019-05-19T16:46:37.935Z,10.73
2019-05-19T16:49:06.091Z,10.57
2019-05-19T16:51:34.260Z,10.27
2019-05-19T16:54:06.980Z,11.23
2019-05-19T16:56:35.119Z,10.63
2019-05-19T16:59:03.153Z,10.07
2019-05-19T17:01:31.686Z,10.27
2019-05-19T17:03:59.802Z,10.73
2019-05-19T17:06:27.865Z,11.00
2019-05-19T17:08:55.859Z,10.73
2019-05-19T17:11:23.850Z,9.63
2019-05-19T17:13:51.856Z,10.27
2019-05-19T17:16:19.896Z,10.63
2019-05-19T17:18:47.896Z,10.93
2019-05-19T17:21:15.894Z,11.90
2019-05-19T17:23:43.901Z,11.13
2019-05-19T17:26:11.842Z,9.97
2019-05-19T17:28:39.846Z,10.30
2019-05-19T17:31:08.061Z,11.10
2019-05-19T17:33:36.057Z,10.20
2019-05-19T17:36:04.101Z,11.70
2019-05-19T17:38:32.064Z,10.60
2019-05-19T17:41:00.059Z,10.97
2019-05-19T17:43:28.057Z,10.20
2019-05-19T17:45:56.150Z,10.50
2019-05-19T17:48:27.196Z,11.70
2019-05-19T17:50:53.754Z,10.33
2019-05-19T17:53:21.763Z,10.83
2019-05-19T17:55:49.846Z,11.97
2019-05-19T17:58:17.794Z,11.33
2019-05-19T18:00:45.878Z,12.70
2019-05-19T18:03:13.848Z,10.73
2019-05-19T18:05:41.987Z,11.67
2019-05-19T18:08:10.040Z,10.93
2019-05-19T18:10:38.049Z,11.63
2019-05-19T18:13:06.056Z,11.57
2019-05-19T18:15:34.112Z,14.13
2019-05-19T18:18:02.109Z,13.03
2019-05-19T18:20:30.097Z,11.50
2019-05-19T18:22:58.110Z,11.97
2019-05-19T18:25:26.120Z,13.17
2019-05-19T18:27:54.110Z,12.67
2019-05-19T18:30:23.588Z,13.43
2019-05-19T18:32:52.062Z,13.20
2019-05-19T18:35:20.639Z,13.43
2019-05-19T18:37:48.648Z,13.00
2019-05-19T18:40:16.774Z,12.63
2019-05-19T18:42:44.801Z,15.30
2019-05-19T18:45:12.854Z,13.53
2019-05-19T18:47:40.827Z,13.87
2019-05-19T18:50:08.898Z,13.43
2019-05-19T18:52:36.883Z,15.27
2019-05-19T18:55:05.021Z,15.07
2019-05-19T18:57:33.031Z,15.17
2019-05-19T19:00:01.132Z,15.15
2019-05-19T19:02:29.169Z,15.67
2019-05-19T19:04:57.301Z,14.43
2019-05-19T19:07:44.266Z,13.90
2019-05-19T19:10:12.730Z,13.77
2019-05-19T19:12:40.705Z,13.80
2019-05-19T19:15:08.746Z,14.30
2019-05-19T19:17:36.746Z,14.50
2019-05-19T19:20:06.077Z,14.03
2019-05-19T19:22:34.142Z,15.13
2019-05-19T19:25:03.406Z,16.33
2019-05-19T19:27:31.396Z,16.70
2019-05-19T19:30:03.703Z,15.73
2019-05-19T19:32:29.564Z,16.33
2019-05-19T19:34:57.549Z,14.50
2019-05-19T19:37:25.548Z,14.37
2019-05-19T19:39:53.539Z,13.97
2019-05-19T19:42:21.570Z,15.73
2019-05-19T19:44:49.614Z,14.53
2019-05-19T19:47:17.916Z,14.07
2019-05-19T19:49:46.398Z,18.30
2019-05-19T19:52:14.713Z,13.30
2019-05-19T19:54:42.726Z,13.37
2019-05-19T19:57:11.086Z,12.50
2019-05-19T19:59:38.996Z,12.88
2019-05-19T20:02:06.997Z,11.87
2019-05-19T20:04:35.002Z,12.97
2019-05-19T20:07:02.988Z,11.97
2019-05-19T20:09:31.027Z,12.87
2019-05-19T20:11:59.038Z,11.10
2019-05-19T20:14:27.039Z,13.87
2019-05-19T20:16:55.010Z,10.70
2019-05-19T20:19:23.056Z,11.40
2019-05-19T20:21:51.033Z,13.83
2019-05-19T20:24:19.047Z,10.27
2019-05-19T20:26:47.011Z,11.07
2019-05-19T20:29:15.045Z,11.17
2019-05-19T20:31:43.069Z,10.90
2019-05-19T20:34:11.121Z,11.33
2019-05-19T20:36:39.110Z,10.73
2019-05-19T20:39:07.391Z,10.00
2019-05-19T20:41:35.392Z,12.87
2019-05-19T20:44:03.392Z,11.43
2019-05-19T20:46:31.435Z,9.77
2019-05-19T20:48:59.875Z,9.77
2019-05-19T20:51:27.982Z,10.97
2019-05-19T20:53:55.955Z,10.33
2019-05-19T20:56:24.173Z,11.53
2019-05-19T20:58:52.268Z,10.63
2019-05-19T21:01:20.794Z,11.63
2019-05-19T21:03:48.788Z,11.10
2019-05-19T21:06:16.836Z,10.87
2019-05-19T21:08:44.835Z,12.23
2019-05-19T21:11:12.857Z,10.50
2019-05-19T21:13:40.843Z,11.70
2019-05-19T21:16:08.927Z,12.57
2019-05-19T21:18:36.966Z,12.37
2019-05-19T21:21:04.994Z,12.73
2019-05-19T21:23:33.018Z,13.87
2019-05-19T21:26:01.043Z,15.07
2019-05-19T21:28:29.007Z,12.30
2019-05-19T21:31:05.437Z,14.03
2019-05-19T21:33:26.890Z,12.77
2019-05-19T21:35:54.870Z,14.10
2019-05-19T21:38:22.910Z,14.30
2019-05-19T21:40:50.926Z,15.40
2019-05-19T21:43:18.966Z,13.50
2019-05-19T21:45:46.940Z,12.37
2019-05-19T21:48:14.945Z,14.20
2019-05-19T21:50:42.942Z,13.97
2019-05-19T21:53:10.944Z,12.50
2019-05-19T21:55:38.928Z,11.53
2019-05-19T21:58:06.941Z,10.93
2019-05-19T22:00:35.130Z,12.83
2019-05-19T22:03:03.402Z,11.33
2019-05-19T22:05:31.414Z,11.83
2019-05-19T22:08:02.844Z,11.40
2019-05-19T22:10:30.830Z,11.83
2019-05-19T22:12:59.174Z,12.43
2019-05-19T22:15:27.496Z,10.90
2019-05-19T22:17:55.811Z,11.93
2019-05-19T22:20:23.776Z,11.03
2019-05-19T22:22:51.766Z,10.63
2019-05-19T22:25:19.766Z,10.67
2019-05-19T22:27:47.742Z,10.77
2019-05-19T22:30:15.905Z,11.00
2019-05-19T22:32:43.893Z,10.13
2019-05-19T22:35:14.996Z,11.43
2019-05-19T22:37:43.338Z,10.60
2019-05-19T22:40:11.637Z,10.23
2019-05-19T22:42:40.784Z,8.87
2019-05-19T22:45:09.096Z,10.07
2019-05-19T22:47:37.118Z,10.30
2019-05-19T22:50:05.504Z,10.80
2019-05-19T22:52:33.505Z,11.57
2019-05-19T22:55:01.814Z,11.83
2019-05-19T22:57:32.955Z,10.53
2019-05-19T23:00:01.096Z,12.73
2019-05-19T23:02:29.140Z,13.20
2019-05-19T23:04:57.210Z,14.10
2019-05-19T23:07:25.359Z,14.73
2019-05-19T23:09:53.477Z,14.97
2019-05-19T23:12:21.589Z,15.43
2019-05-19T23:14:49.627Z,16.30
2019-05-19T23:17:17.755Z,15.30
2019-05-19T23:19:45.783Z,17.57
2019-05-19T23:22:13.844Z,17.70
2019-05-19T23:24:41.844Z,17.90
2019-05-19T23:27:09.967Z,16.67
2019-05-19T23:29:38.046Z,16.93
2019-05-19T23:32:07.438Z,17.43
2019-05-19T23:34:36.675Z,17.03
2019-05-19T23:37:04.920Z,17.90
2019-05-19T23:39:33.691Z,18.30
2019-05-19T23:42:02.117Z,18.27
2019-05-19T23:44:30.747Z,18.30
2019-05-19T23:46:59.273Z,18.80
2019-05-19T23:49:28.841Z,19.07
2019-05-19T23:51:56.956Z,19.10
2019-05-19T23:54:25.200Z,18.83
2019-05-19T23:56:54.264Z,20.93
2019-05-19T23:59:22.819Z,20.03
